Time;durP1;ratioP1;P1;durP2;ratioP2;P2;SDS_P1;SDS_P2;PMS_P1;PMS_P2;Temp;Humidity;BMP_temperature;BMP_pressure;BME280_temperature;BME280_humidity;BME280_pressure;Samples;Min_cycle;Max_cycle;Signal;HPM_P1;HPM_P2
2021/08/12 00:00:53;;;;;;;4.43;3.67;;;21.60;99.90;;;;;;5053100;28;20649;-64
2021/08/12 00:03:18;;;;;;;4.67;4.00;;;21.60;99.90;;;;;;5053227;28;20213;-54
2021/08/12 00:05:44;;;;;;;5.37;3.80;;;22.10;99.90;;;;;;5052933;28;20237;-65
2021/08/12 00:08:09;;;;;;;4.07;3.67;;;21.60;99.90;;;;;;5053214;28;20250;-65
2021/08/12 00:10:35;;;;;;;3.93;3.63;;;21.50;99.90;;;;;;5053221;28;20191;-58
2021/08/12 00:13:00;;;;;;;3.63;3.33;;;21.60;99.90;;;;;;5052888;28;20204;-58
2021/08/12 00:15:26;;;;;;;4.30;3.90;;;21.50;99.90;;;;;;5053271;28;20500;-65
2021/08/12 00:17:52;;;;;;;5.30;4.27;;;21.50;99.90;;;;;;5053142;28;20635;-64
2021/08/12 00:20:18;;;;;;;4.60;4.00;;;21.50;99.90;;;;;;5055692;28;20194;-60
2021/08/12 00:22:44;;;;;;;4.73;4.00;;;21.50;99.90;;;;;;5056208;28;20175;-63
2021/08/12 00:25:09;;;;;;;4.77;3.87;;;21.50;99.90;;;;;;5056755;28;20187;-64
2021/08/12 00:27:35;;;;;;;4.40;3.90;;;21.40;99.90;;;;;;5057009;28;20171;-61
2021/08/12 00:30:01;;;;;;;5.47;3.57;;;21.40;99.90;;;;;;5056974;28;20183;-56
2021/08/12 00:32:27;;;;;;;5.17;3.80;;;21.40;99.90;;;;;;5056099;28;20183;-60
2021/08/12 00:34:52;;;;;;;3.83;3.53;;;21.30;99.90;;;;;;5056392;28;20210;-65
2021/08/12 00:37:19;;;;;;;6.27;4.43;;;21.30;99.90;;;;;;5056451;28;20184;-64
2021/08/12 00:39:45;;;;;;;6.60;4.40;;;21.20;99.90;;;;;;5056458;28;20233;-64
2021/08/12 00:42:11;;;;;;;5.33;4.50;;;21.10;99.90;;;;;;5055915;28;20261;-62
2021/08/12 00:44:36;;;;;;;4.67;4.20;;;21.10;99.90;;;;;;5055791;28;20206;-60
2021/08/12 00:47:03;;;;;;;6.13;4.60;;;21.10;99.90;;;;;;5055996;28;20164;-65
2021/08/12 00:49:28;;;;;;;5.00;4.47;;;21.10;99.90;;;;;;5056132;28;20236;-60
2021/08/12 00:51:54;;;;;;;5.47;4.43;;;21.80;99.90;;;;;;5055139;28;20171;-59
2021/08/12 00:54:20;;;;;;;4.57;4.10;;;21.10;99.90;;;;;;5053936;28;20656;-56
2021/08/12 00:56:47;;;;;;;6.03;4.20;;;21.30;99.90;;;;;;5053937;28;20233;-64
2021/08/12 00:59:13;;;;;;;4.53;4.10;;;21.00;99.90;;;;;;5053572;28;20191;-63
2021/08/12 01:01:38;;;;;;;4.40;4.00;;;20.90;99.90;;;;;;5053436;28;20183;-60
2021/08/12 01:04:04;;;;;;;3.77;3.43;;;20.90;99.90;;;;;;5053382;28;20210;-64
2021/08/12 01:06:50;;;;;;;7.10;4.20;;;21.00;99.90;;;;;;5053523;28;20234;-60
2021/08/12 01:09:40;;;;;;;4.27;3.80;;;21.00;99.90;;;;;;5055052;28;20635;-64
2021/08/12 01:12:16;;;;;;;5.03;4.30;;;21.00;99.90;;;;;;5013576;28;20711;-64
2021/08/12 01:15:02;;;;;;;4.43;3.90;;;21.00;99.90;;;;;;5019646;28;20733;-54
2021/08/12 01:17:34;;;;;;;4.87;4.33;;;21.00;99.90;;;;;;5034089;28;20195;-64
2021/08/12 01:20:02;;;;;;;5.73;3.73;;;20.90;99.90;;;;;;5033505;28;20242;-60
2021/08/12 01:22:29;;;;;;;4.40;3.90;;;20.80;99.90;;;;;;5033109;28;20185;-65
2021/08/12 01:24:59;;;;;;;4.60;4.20;;;20.80;99.90;;;;;;5033347;28;20555;-60
2021/08/12 01:27:29;;;;;;;7.87;4.30;;;20.80;99.90;;;;;;5033504;28;20237;-65
2021/08/12 01:30:03;;;;;;;4.70;4.13;;;20.90;99.90;;;;;;5033356;28;20196;-57
2021/08/12 01:32:49;;;;;;;4.27;3.83;;;20.90;99.90;;;;;;5032997;28;20587;-64
2021/08/12 01:35:18;;;;;;;4.60;3.90;;;20.90;99.90;;;;;;5026031;28;20234;-65
2021/08/12 01:37:57;;;;;;;4.67;4.10;;;20.80;99.90;;;;;;5033303;28;20207;-64
2021/08/12 01:40:26;;;;;;;5.50;3.87;;;20.80;99.90;;;;;;5033053;28;20273;-65
2021/08/12 01:42:53;;;;;;;4.27;3.87;;;20.80;99.90;;;;;;5032778;28;20750;-65
2021/08/12 01:45:19;;;;;;;4.60;4.10;;;20.80;99.90;;;;;;5033492;28;20180;-54
2021/08/12 01:47:47;;;;;;;5.27;3.73;;;20.80;99.90;;;;;;5033454;28;20172;-57
2021/08/12 01:50:14;;;;;;;4.50;4.10;;;20.80;99.90;;;;;;5071869;28;20186;-54
2021/08/12 01:52:48;;;;;;;4.30;3.90;;;20.80;99.90;;;;;;5074767;28;20316;-59
2021/08/12 01:55:17;;;;;;;4.70;4.03;;;20.80;99.90;;;;;;5075153;28;20205;-59
2021/08/12 01:57:44;;;;;;;5.13;4.07;;;20.80;99.90;;;;;;5075378;28;20167;-59
2021/08/12 02:00:11;;;;;;;4.80;4.13;;;20.80;99.90;;;;;;5075217;28;20228;-54
2021/08/12 02:02:37;;;;;;;6.87;4.10;;;20.80;99.90;;;;;;5074537;28;20174;-55
2021/08/12 02:05:04;;;;;;;6.27;4.10;;;20.80;99.90;;;;;;5074641;28;20171;-65
2021/08/12 02:07:31;;;;;;;4.27;3.87;;;20.80;99.90;;;;;;5074784;28;20170;-64
2021/08/12 02:09:57;;;;;;;7.70;4.40;;;20.70;99.90;;;;;;5074485;28;20193;-63
2021/08/12 02:12:22;;;;;;;5.37;4.10;;;20.70;99.90;;;;;;5074199;28;20181;-65
2021/08/12 02:14:48;;;;;;;4.50;4.10;;;20.60;99.90;;;;;;5074534;28;20195;-64
2021/08/12 02:17:13;;;;;;;4.50;4.00;;;20.70;99.90;;;;;;5073064;28;20197;-55
2021/08/12 02:19:39;;;;;;;4.63;4.10;;;20.70;99.90;;;;;;5074191;28;20316;-64
2021/08/12 02:22:16;;;;;;;4.23;3.80;;;20.70;99.90;;;;;;5074194;28;20169;-53
2021/08/12 02:25:08;;;;;;;4.20;3.80;;;20.70;99.90;;;;;;5074293;28;20341;-64
2021/08/12 02:27:41;;;;;;;5.70;3.83;;;20.60;99.90;;;;;;5074323;28;20159;-60
2021/08/12 02:30:08;;;;;;;4.37;3.87;;;20.60;99.90;;;;;;5074633;28;20228;-59
2021/08/12 02:32:35;;;;;;;5.67;3.97;;;20.60;99.90;;;;;;5073829;28;20735;-61
2021/08/12 02:35:01;;;;;;;4.70;3.80;;;20.60;99.90;;;;;;5073797;28;20171;-64
2021/08/12 02:37:28;;;;;;;5.90;3.90;;;20.50;99.90;;;;;;5073869;28;20227;-60
2021/08/12 02:39:56;;;;;;;5.90;4.10;;;20.50;99.90;;;;;;5073865;28;20205;-64
2021/08/12 02:42:21;;;;;;;5.17;4.10;;;20.50;99.90;;;;;;5073266;28;20232;-60
2021/08/12 02:44:47;;;;;;;4.50;4.00;;;20.40;99.90;;;;;;5074205;28;20194;-57
2021/08/12 02:47:15;;;;;;;4.50;4.10;;;20.40;99.90;;;;;;5074247;28;20170;-64
2021/08/12 02:49:46;;;;;;;4.40;4.00;;;20.40;99.90;;;;;;5074058;28;20181;-62
2021/08/12 02:52:14;;;;;;;4.73;4.20;;;20.40;99.90;;;;;;5073620;28;20163;-58
2021/08/12 02:54:42;;;;;;;4.17;3.73;;;20.40;99.90;;;;;;5073833;28;20189;-65
2021/08/12 02:57:08;;;;;;;4.27;3.90;;;20.40;99.90;;;;;;5073776;28;20206;-57
2021/08/12 02:59:35;;;;;;;4.20;3.80;;;20.40;99.90;;;;;;5073700;28;20294;-56
2021/08/12 03:02:02;;;;;;;6.20;4.40;;;20.40;99.90;;;;;;5073597;28;20173;-64
2021/08/12 03:04:28;;;;;;;4.90;3.93;;;20.40;99.90;;;;;;5073529;28;20678;-64
2021/08/12 03:06:58;;;;;;;5.03;4.17;;;20.40;99.90;;;;;;5074163;28;20174;-64
2021/08/12 03:09:26;;;;;;;4.40;4.00;;;20.30;99.90;;;;;;5073561;28;20535;-64
2021/08/12 03:11:54;;;;;;;5.43;4.30;;;20.30;99.90;;;;;;5073359;28;20207;-64
2021/08/12 03:14:20;;;;;;;5.03;3.70;;;20.30;99.90;;;;;;5073870;28;20281;-54
2021/08/12 03:16:46;;;;;;;5.93;4.03;;;20.30;99.90;;;;;;5074110;28;20275;-64
2021/08/12 03:19:11;;;;;;;4.87;4.00;;;20.30;99.90;;;;;;5073217;28;20197;-65
2021/08/12 03:21:37;;;;;;;7.03;4.00;;;20.30;99.90;;;;;;5073254;28;20182;-65
2021/08/12 03:24:04;;;;;;;5.10;4.23;;;20.30;99.90;;;;;;5073632;28;20229;-64
2021/08/12 03:26:31;;;;;;;4.47;4.07;;;20.20;99.90;;;;;;5073994;28;20183;-65
2021/08/12 03:28:58;;;;;;;5.90;3.90;;;20.20;99.90;;;;;;5073875;28;20174;-57
2021/08/12 03:31:23;;;;;;;5.40;4.23;;;20.20;99.90;;;;;;5073424;28;20261;-64
2021/08/12 03:33:49;;;;;;;4.90;4.17;;;20.20;99.90;;;;;;5073114;28;20218;-64
2021/08/12 03:36:14;;;;;;;5.00;4.50;;;20.20;99.90;;;;;;5073412;28;20171;-56
2021/08/12 03:38:40;;;;;;;6.43;4.17;;;20.20;99.90;;;;;;5073640;28;20232;-61
2021/08/12 03:41:05;;;;;;;5.57;3.93;;;20.10;99.90;;;;;;5073650;28;20170;-64
2021/08/12 03:43:31;;;;;;;5.73;4.27;;;20.10;99.90;;;;;;5073314;28;20190;-64
2021/08/12 03:45:57;;;;;;;4.43;4.03;;;20.10;99.90;;;;;;5073695;28;20261;-62
2021/08/12 03:48:23;;;;;;;5.83;3.80;;;20.10;99.90;;;;;;5073790;28;20170;-65
2021/08/12 03:50:48;;;;;;;4.93;4.03;;;20.10;99.90;;;;;;5073182;28;20174;-63
2021/08/12 03:53:14;;;;;;;5.37;4.13;;;20.00;99.90;;;;;;5072990;28;20601;-55
2021/08/12 03:55:40;;;;;;;4.93;4.07;;;20.00;99.90;;;;;;5077002;28;20220;-60
2021/08/12 03:58:05;;;;;;;5.90;4.60;;;20.00;99.90;;;;;;5077150;28;20186;-59
2021/08/12 04:00:31;;;;;;;6.23;4.40;;;20.00;99.90;;;;;;5076982;28;20287;-58
2021/08/12 04:02:56;;;;;;;4.50;4.10;;;20.00;99.90;;;;;;5077123;28;20622;-59
2021/08/12 04:05:22;;;;;;;5.17;4.43;;;19.90;99.90;;;;;;5076684;28;20167;-55
2021/08/12 04:07:47;;;;;;;5.47;4.43;;;19.90;99.90;;;;;;5076994;28;20171;-65
2021/08/12 04:10:13;;;;;;;5.10;4.10;;;19.90;99.90;;;;;;5076639;28;20186;-59
2021/08/12 04:12:38;;;;;;;5.33;4.10;;;19.90;99.90;;;;;;5076932;28;20261;-64
2021/08/12 04:15:05;;;;;;;5.53;4.20;;;19.70;99.90;;;;;;5077244;28;20568;-59
2021/08/12 04:17:30;;;;;;;5.00;4.40;;;19.70;99.90;;;;;;5077418;28;20249;-58
2021/08/12 04:19:56;;;;;;;6.63;4.60;;;19.60;99.90;;;;;;5076425;28;20301;-64
2021/08/12 04:22:21;;;;;;;4.63;4.13;;;19.70;99.90;;;;;;5076668;28;20618;-64
2021/08/12 04:24:47;;;;;;;5.17;4.67;;;19.70;99.90;;;;;;5076703;28;20208;-56
2021/08/12 04:27:14;;;;;;;6.73;4.60;;;19.70;99.90;;;;;;5076758;28;20567;-57
2021/08/12 04:29:41;;;;;;;5.57;4.40;;;19.80;99.90;;;;;;5076395;28;20260;-64
2021/08/12 04:32:07;;;;;;;6.17;4.20;;;19.80;99.90;;;;;;5076215;28;20179;-60
2021/08/12 04:34:32;;;;;;;4.93;4.40;;;19.90;99.90;;;;;;5076371;28;20662;-59
2021/08/12 04:36:58;;;;;;;5.60;4.17;;;19.90;99.90;;;;;;5076200;28;20253;-64
2021/08/12 04:39:24;;;;;;;5.90;4.40;;;19.90;99.90;;;;;;5076314;28;20191;-65
2021/08/12 04:41:49;;;;;;;4.83;4.33;;;19.90;99.90;;;;;;5076240;28;20170;-59
2021/08/12 04:44:15;;;;;;;5.17;4.40;;;20.00;99.90;;;;;;5076072;28;20227;-63
2021/08/12 04:46:40;;;;;;;6.23;4.30;;;20.10;99.90;;;;;;5076752;28;20167;-66
2021/08/12 04:49:07;;;;;;;6.53;4.47;;;20.20;99.90;;;;;;5076372;28;20181;-59
2021/08/12 04:51:32;;;;;;;6.17;4.30;;;20.20;99.90;;;;;;5076104;28;20241;-64
2021/08/12 04:53:58;;;;;;;6.13;4.40;;;20.10;99.90;;;;;;5076493;28;20221;-64
2021/08/12 04:56:23;;;;;;;5.20;4.33;;;20.10;99.90;;;;;;5076802;28;20560;-52
2021/08/12 04:58:49;;;;;;;6.13;4.33;;;20.20;99.90;;;;;;5075879;28;20175;-56
2021/08/12 05:01:19;;;;;;;4.60;3.80;;;20.30;99.90;;;;;;5076499;28;20167;-64
2021/08/12 05:03:45;;;;;;;5.03;4.23;;;20.40;99.90;;;;;;5076154;28;20202;-64
2021/08/12 05:06:14;;;;;;;7.20;4.97;;;20.10;99.90;;;;;;5075449;28;20171;-65
2021/08/12 05:08:40;;;;;;;6.00;4.53;;;20.00;99.90;;;;;;5075780;28;20174;-64
2021/08/12 05:11:07;;;;;;;6.67;4.57;;;20.00;99.90;;;;;;5075655;28;20167;-63
2021/08/12 05:13:33;;;;;;;4.70;4.13;;;20.10;99.90;;;;;;5075862;28;20616;-60
2021/08/12 05:15:59;;;;;;;4.37;3.97;;;20.30;99.90;;;;;;5076093;28;20624;-64
2021/08/12 05:18:24;;;;;;;5.60;4.10;;;20.40;99.90;;;;;;5075721;28;20175;-60
2021/08/12 05:20:50;;;;;;;4.80;4.30;;;20.50;99.90;;;;;;5075202;28;20335;-64
2021/08/12 05:23:17;;;;;;;5.03;4.50;;;20.60;99.90;;;;;;5074337;28;20195;-59
2021/08/12 05:25:44;;;;;;;5.40;4.40;;;20.60;99.90;;;;;;5075376;28;20162;-59
2021/08/12 05:28:11;;;;;;;6.30;4.27;;;20.80;99.90;;;;;;5076134;28;20280;-58
2021/08/12 05:30:37;;;;;;;5.53;4.30;;;20.80;99.90;;;;;;5062140;28;20293;-56
2021/08/12 05:33:03;;;;;;;6.30;4.57;;;20.90;99.90;;;;;;5066234;28;20594;-65
2021/08/12 05:35:29;;;;;;;5.17;4.03;;;21.00;99.90;;;;;;5067378;28;20214;-59
2021/08/12 05:37:54;;;;;;;6.67;4.00;;;21.10;99.90;;;;;;5075613;28;20569;-59
2021/08/12 05:40:20;;;;;;;6.07;4.63;;;21.20;99.90;;;;;;5075083;28;20214;-65
2021/08/12 05:42:45;;;;;;;4.77;3.70;;;21.10;99.90;;;;;;5074293;28;20183;-63
2021/08/12 05:45:11;;;;;;;5.27;4.10;;;21.30;99.90;;;;;;5074606;28;20171;-64
2021/08/12 05:47:36;;;;;;;6.40;4.23;;;21.40;99.90;;;;;;5074771;28;20261;-64
2021/08/12 05:50:03;;;;;;;5.07;4.40;;;21.50;99.90;;;;;;5074672;28;20174;-57
2021/08/12 05:52:28;;;;;;;4.40;4.00;;;21.60;99.90;;;;;;5075637;28;20183;-60
2021/08/12 05:54:54;;;;;;;4.73;4.23;;;21.70;99.90;;;;;;5074803;28;20256;-65
2021/08/12 05:57:19;;;;;;;4.83;4.13;;;21.70;99.90;;;;;;5075024;28;20561;-59
2021/08/12 05:59:45;;;;;;;4.80;4.03;;;21.80;99.90;;;;;;5074410;28;20203;-64
2021/08/12 06:02:11;;;;;;;4.93;4.00;;;21.80;99.90;;;;;;5067279;28;20179;-58
2021/08/12 06:04:36;;;;;;;5.57;4.20;;;21.80;99.90;;;;;;5063729;28;20187;-64
2021/08/12 06:07:02;;;;;;;6.03;3.97;;;21.90;99.90;;;;;;5069001;28;20552;-60
2021/08/12 06:09:28;;;;;;;4.10;3.70;;;21.90;99.90;;;;;;5062772;28;20194;-63
2021/08/12 06:11:53;;;;;;;4.40;4.00;;;22.00;99.90;;;;;;5068141;28;20178;-64
2021/08/12 06:14:19;;;;;;;5.78;4.35;;;22.00;99.90;;;;;;5060972;28;20206;-63
2021/08/12 06:16:44;;;;;;;5.37;4.10;;;22.10;99.90;;;;;;5073147;28;20194;-57
2021/08/12 06:19:10;;;;;;;4.17;3.73;;;22.10;99.90;;;;;;5073829;28;20558;-59
2021/08/12 06:21:35;;;;;;;4.38;3.97;;;22.00;99.90;;;;;;5074074;28;20188;-58
2021/08/12 06:24:01;;;;;;;4.30;3.90;;;22.10;99.90;;;;;;5073945;28;20248;-64
2021/08/12 06:26:26;;;;;;;5.85;4.03;;;22.20;99.90;;;;;;5061933;28;20266;-60
2021/08/12 06:28:52;;;;;;;5.97;4.03;;;22.30;99.90;;;;;;5069614;28;20171;-65
2021/08/12 06:31:18;;;;;;;4.43;4.03;;;22.40;99.90;;;;;;5073638;28;20175;-60
2021/08/12 06:33:43;;;;;;;3.95;3.55;;;22.40;99.90;;;;;;5073832;28;20660;-58
2021/08/12 06:36:09;;;;;;;4.07;3.67;;;22.50;99.90;;;;;;5074196;28;20643;-61
2021/08/12 06:38:35;;;;;;;4.82;3.90;;;22.60;99.90;;;;;;5073239;28;20189;-60
2021/08/12 06:41:00;;;;;;;5.53;3.80;;;22.60;99.90;;;;;;5073686;28;20253;-60
2021/08/12 06:43:26;;;;;;;4.20;3.65;;;22.70;99.90;;;;;;5062136;28;20204;-56
2021/08/12 06:45:51;;;;;;;4.32;3.92;;;22.80;99.90;;;;;;5053671;28;20554;-64
2021/08/12 06:48:17;;;;;;;5.13;3.90;;;22.90;99.90;;;;;;5053212;28;20208;-63
2021/08/12 06:50:42;;;;;;;6.10;4.32;;;23.00;99.90;;;;;;5053304;28;20170;-65
2021/08/12 06:53:08;;;;;;;4.03;3.60;;;23.10;99.90;;;;;;5054700;28;20205;-65
2021/08/12 06:55:35;;;;;;;4.45;3.90;;;23.10;99.90;;;;;;5054227;28;20178;-64
2021/08/12 06:58:01;;;;;;;4.15;3.75;;;23.20;99.90;;;;;;5054410;28;20203;-64
2021/08/12 07:00:27;;;;;;;4.20;3.80;;;23.30;99.90;;;;;;5053827;28;20256;-64
2021/08/12 07:02:54;;;;;;;4.03;3.58;;;23.40;99.90;;;;;;5053706;28;20194;-64
2021/08/12 07:05:19;;;;;;;5.15;4.10;;;23.50;99.90;;;;;;5053602;28;20186;-64
2021/08/12 07:07:45;;;;;;;4.47;4.07;;;23.20;99.90;;;;;;5054251;28;20262;-60
2021/08/12 07:10:11;;;;;;;4.35;3.80;;;23.10;99.90;;;;;;5053470;28;20520;-63
2021/08/12 07:12:37;;;;;;;6.13;3.83;;;23.20;99.90;;;;;;5053496;28;20228;-64
2021/08/12 07:15:05;;;;;;;4.07;3.50;;;23.40;99.90;;;;;;5053714;28;20179;-64
2021/08/12 07:17:34;;;;;;;4.60;3.90;;;23.50;99.90;;;;;;5053799;28;20187;-65
2021/08/12 07:20:00;;;;;;;5.38;4.60;;;23.50;99.90;;;;;;5053315;28;20195;-62
2021/08/12 07:22:26;;;;;;;7.55;4.10;;;23.60;99.90;;;;;;5053176;28;20174;-59
2021/08/12 07:24:51;;;;;;;5.35;4.30;;;23.50;99.90;;;;;;5070022;28;20205;-65
2021/08/12 07:27:17;;;;;;;6.18;4.07;;;23.50;99.90;;;;;;5053634;28;20732;-64
2021/08/12 07:29:42;;;;;;;4.22;3.83;;;23.50;99.90;;;;;;5057327;28;20175;-65
2021/08/12 07:32:08;;;;;;;5.28;4.07;;;23.40;99.90;;;;;;5057849;28;20179;-65
2021/08/12 07:34:34;;;;;;;6.00;3.90;;;23.30;99.90;;;;;;5057594;28;20183;-61
2021/08/12 07:36:59;;;;;;;5.28;3.83;;;23.30;99.90;;;;;;5057808;28;20179;-60
2021/08/12 07:39:25;;;;;;;7.03;4.10;;;23.20;99.90;;;;;;5057921;28;20203;-60
2021/08/12 07:41:50;;;;;;;6.72;4.65;;;23.10;99.90;;;;;;5057512;28;20193;-65
2021/08/12 07:44:16;;;;;;;5.03;3.97;;;23.20;99.90;;;;;;5057333;28;20519;-64
2021/08/12 07:46:41;;;;;;;4.60;4.20;;;23.40;99.90;;;;;;5057171;28;20209;-62
2021/08/12 07:49:07;;;;;;;5.63;4.20;;;23.40;99.90;;;;;;5057148;28;20191;-65
2021/08/12 07:51:33;;;;;;;4.55;4.15;;;23.30;99.90;;;;;;5057550;28;20679;-65
2021/08/12 07:53:59;;;;;;;5.93;4.63;;;23.40;99.90;;;;;;5057097;28;20191;-59
2021/08/12 07:56:25;;;;;;;8.07;4.40;;;23.60;99.90;;;;;;5072840;28;20254;-64
2021/08/12 07:58:50;;;;;;;4.78;4.28;;;23.70;99.90;;;;;;5057469;28;20208;-62
2021/08/12 08:01:17;;;;;;;7.10;4.30;;;23.80;99.90;;;;;;5057174;28;20168;-59
2021/08/12 08:03:43;;;;;;;6.93;4.80;;;24.00;99.90;;;;;;5057359;28;20195;-60
2021/08/12 08:06:09;;;;;;;6.20;4.30;;;24.10;99.90;;;;;;5057070;28;20168;-65
2021/08/12 08:08:34;;;;;;;6.20;4.63;;;24.00;99.90;;;;;;5056881;28;20186;-58
2021/08/12 08:11:00;;;;;;;5.38;4.55;;;24.20;99.90;;;;;;5056998;28;20572;-60
2021/08/12 08:13:25;;;;;;;6.00;5.40;;;24.30;99.90;;;;;;5056745;28;20740;-62
2021/08/12 08:15:51;;;;;;;6.70;5.55;;;24.40;99.90;;;;;;5056811;28;20179;-63
2021/08/12 08:18:16;;;;;;;8.05;6.07;;;24.40;99.90;;;;;;5056755;28;20183;-65
2021/08/12 08:20:42;;;;;;;7.70;5.55;;;24.30;99.90;;;;;;5056554;28;20550;-62
2021/08/12 08:23:10;;;;;;;6.20;5.60;;;24.40;99.90;;;;;;5056445;28;20663;-65
2021/08/12 08:25:36;;;;;;;7.05;6.05;;;24.30;99.90;;;;;;5056849;28;20183;-62
2021/08/12 08:28:03;;;;;;;6.38;5.78;;;24.10;99.90;;;;;;5057066;28;20179;-59
2021/08/12 08:30:31;;;;;;;6.53;5.80;;;24.40;99.90;;;;;;5056645;28;20199;-61
2021/08/12 08:32:57;;;;;;;6.85;5.60;;;24.60;99.90;;;;;;5057029;28;20305;-62
2021/08/12 08:35:25;;;;;;;6.43;5.78;;;24.90;99.90;;;;;;5056809;28;20634;-62
2021/08/12 08:37:54;;;;;;;8.55;6.35;;;25.10;99.90;;;;;;5056760;28;20179;-64
2021/08/12 08:40:20;;;;;;;7.53;6.57;;;25.30;99.90;;;;;;5056318;28;20281;-66
2021/08/12 08:42:46;;;;;;;7.47;5.70;;;25.30;99.90;;;;;;5056529;28;20176;-63
2021/08/12 08:45:16;;;;;;;6.50;5.82;;;25.30;99.90;;;;;;5056385;28;20593;-58
2021/08/12 08:47:42;;;;;;;5.90;5.22;;;25.40;99.90;;;;;;5056627;28;20172;-64
2021/08/12 08:50:10;;;;;;;6.75;5.97;;;25.70;99.90;;;;;;5056184;28;20171;-65
2021/08/12 08:52:37;;;;;;;7.75;5.82;;;25.90;99.90;;;;;;5056395;28;20187;-62
2021/08/12 08:55:03;;;;;;;6.20;5.60;;;26.10;99.90;;;;;;5056180;28;20639;-60
2021/08/12 08:57:31;;;;;;;6.80;5.95;;;26.50;99.90;;;;;;5056086;28;20650;-66
2021/08/12 08:59:57;;;;;;;6.10;5.50;;;26.80;99.90;;;;;;5056314;28;20501;-62
2021/08/12 09:02:23;;;;;;;6.70;6.00;;;26.90;99.90;;;;;;5055545;28;20175;-65
2021/08/12 09:04:48;;;;;;;7.55;5.72;;;26.80;99.90;;;;;;5055767;28;20199;-66
2021/08/12 09:07:14;;;;;;;7.32;5.43;;;26.90;99.90;;;;;;5067135;28;20724;-65
2021/08/12 09:09:39;;;;;;;11.07;5.53;;;27.00;99.90;;;;;;5075463;28;20194;-65
2021/08/12 09:12:06;;;;;;;6.10;5.50;;;26.90;99.90;;;;;;5075155;28;20253;-62
2021/08/12 09:14:40;;;;;;;6.50;5.40;;;26.80;99.90;;;;;;5075823;28;20285;-62
2021/08/12 09:17:17;;;;;;;8.32;5.68;;;26.80;99.90;;;;;;5075429;28;20170;-66
2021/08/12 09:19:58;;;;;;;6.00;5.28;;;26.60;99.90;;;;;;5075456;28;20195;-60
2021/08/12 09:22:23;;;;;;;5.88;5.35;;;26.60;99.90;;;;;;5075318;28;20642;-59
2021/08/12 09:24:50;;;;;;;6.40;5.32;;;26.60;99.90;;;;;;5074948;28;20194;-65
2021/08/12 09:27:20;;;;;;;7.72;5.63;;;26.70;99.90;;;;;;5075810;28;20185;-66
2021/08/12 09:29:46;;;;;;;7.53;5.18;;;26.90;99.90;;;;;;5075517;28;20629;-65
2021/08/12 09:32:11;;;;;;;6.40;5.45;;;27.10;99.90;;;;;;5074994;28;20654;-65
2021/08/12 09:34:41;;;;;;;5.57;4.97;;;27.20;99.90;;;;;;5074809;28;20242;-63
2021/08/12 09:37:09;;;;;;;6.68;5.50;;;27.40;99.90;;;;;;5074022;28;20174;-57
2021/08/12 09:39:35;;;;;;;5.55;4.43;;;27.80;99.90;;;;;;5075207;28;20191;-63
2021/08/12 09:42:03;;;;;;;5.45;4.80;;;28.20;99.90;;;;;;5074756;28;20587;-66
2021/08/12 09:44:44;;;;;;;6.97;5.30;;;28.30;99.90;;;;;;5075226;28;20281;-58
2021/08/12 09:47:34;;;;;;;6.00;5.40;;;28.30;99.90;;;;;;5073630;28;20169;-61
2021/08/12 09:50:00;;;;;;;6.20;4.80;;;28.30;99.90;;;;;;5074103;28;20681;-65
2021/08/12 09:52:34;;;;;;;5.20;4.68;;;28.40;99.90;;;;;;5074242;28;20265;-61
2021/08/12 09:55:14;;;;;;;5.43;4.93;;;28.80;99.90;;;;;;5074796;28;20179;-66
2021/08/12 09:57:46;;;;;;;6.00;5.25;;;29.10;99.90;;;;;;5074505;28;20178;-64
2021/08/12 10:00:26;;;;;;;7.50;5.13;;;29.30;99.90;;;;;;5074670;28;20205;-59
2021/08/12 10:02:52;;;;;;;6.72;5.47;;;29.60;99.90;;;;;;5075521;28;20669;-66
2021/08/12 10:05:18;;;;;;;5.40;4.90;;;30.10;99.90;;;;;;5074300;28;20186;-67
2021/08/12 10:07:52;;;;;;;5.45;4.95;;;30.50;99.90;;;;;;5073909;28;20170;-67
2021/08/12 10:10:18;;;;;;;5.10;4.60;;;30.90;99.90;;;;;;5074194;28;20194;-65
2021/08/12 10:12:52;;;;;;;7.53;5.10;;;30.90;99.90;;;;;;5077459;28;20217;-65
2021/08/12 10:15:22;;;;;;;6.45;4.97;;;30.90;99.90;;;;;;5074206;28;20642;-63
2021/08/12 10:17:48;;;;;;;6.00;4.60;;;31.30;99.90;;;;;;5074550;28;20175;-62
2021/08/12 10:20:19;;;;;;;5.18;4.45;;;31.70;99.90;;;;;;5077089;28;20233;-67
2021/08/12 10:22:47;;;;;;;4.63;3.92;;;32.30;99.90;;;;;;5075181;28;20711;-66
2021/08/12 10:25:15;;;;;;;5.65;4.47;;;32.50;99.90;;;;;;5075221;28;20217;-67
2021/08/12 10:27:41;;;;;;;5.18;4.20;;;32.40;99.90;;;;;;5076513;28;20272;-66
2021/08/12 10:30:08;;;;;;;4.88;4.47;;;32.30;99.90;;;;;;5074276;28;20212;-67
2021/08/12 10:32:37;;;;;;;6.32;4.65;;;32.30;99.90;;;;;;5081952;28;20214;-64
2021/08/12 10:35:04;;;;;;;5.65;4.55;;;32.20;99.90;;;;;;5075106;28;20224;-63
2021/08/12 10:37:30;;;;;;;5.13;4.22;;;32.00;99.90;;;;;;5074641;28;20178;-66
2021/08/12 10:39:57;;;;;;;4.50;4.18;;;31.90;99.90;;;;;;5078971;28;20195;-64
2021/08/12 10:42:23;;;;;;;4.90;4.47;;;31.90;99.90;;;;;;5069813;28;20174;-62
2021/08/12 10:44:49;;;;;;;4.70;4.20;;;32.10;99.90;;;;;;5076460;28;20201;-58
2021/08/12 10:47:41;;;;;;;4.25;3.85;;;32.20;99.80;;;;;;5076248;28;20167;-65
2021/08/12 10:50:31;;;;;;;8.30;4.32;;;32.10;98.90;;;;;;5079097;28;20178;-65
2021/08/12 10:53:09;;;;;;;4.50;4.10;;;31.40;98.90;;;;;;5075724;28;20600;-63
2021/08/12 10:55:57;;;;;;;5.20;3.78;;;31.00;99.90;;;;;;5069722;28;20195;-62
2021/08/12 10:58:26;;;;;;;4.85;4.35;;;30.80;99.90;;;;;;5072086;28;20584;-63
2021/08/12 11:00:54;;;;;;;10.27;4.72;;;30.80;99.90;;;;;;5073406;28;20202;-61
2021/08/12 11:03:35;;;;;;;5.30;4.68;;;30.80;99.90;;;;;;5073349;28;20240;-61
2021/08/12 11:06:06;;;;;;;5.88;4.40;;;30.90;99.90;;;;;;5074012;28;20167;-61
2021/08/12 11:08:54;;;;;;;4.97;4.47;;;31.20;99.90;;;;;;5073430;28;20547;-61
2021/08/12 11:11:25;;;;;;;5.20;4.70;;;31.70;99.90;;;;;;5073716;28;20294;-64
2021/08/12 11:13:55;;;;;;;5.05;4.45;;;31.80;99.90;;;;;;5073323;28;20205;-64
2021/08/12 11:16:26;;;;;;;4.45;4.05;;;32.00;99.90;;;;;;5072793;28;20262;-63
2021/08/12 11:18:56;;;;;;;5.55;5.05;;;32.10;99.90;;;;;;5072952;28;20186;-64
2021/08/12 11:21:31;;;;;;;4.85;4.35;;;32.40;99.90;;;;;;5073138;28;20214;-63
2021/08/12 11:23:57;;;;;;;6.00;4.72;;;32.40;99.90;;;;;;5073499;28;20202;-62
2021/08/12 11:26:23;;;;;;;5.93;5.32;;;32.40;99.80;;;;;;5073289;28;20197;-61
2021/08/12 11:28:51;;;;;;;7.22;5.60;;;32.30;99.00;;;;;;5073288;28;20631;-59
2021/08/12 11:31:23;;;;;;;6.10;5.10;;;32.10;99.10;;;;;;5073889;28;20195;-61
2021/08/12 11:33:50;;;;;;;5.82;4.70;;;31.90;99.90;;;;;;5073789;28;20182;-61
2021/08/12 11:36:22;;;;;;;6.60;4.55;;;31.70;99.90;;;;;;5073272;28;20197;-62
2021/08/12 11:39:03;;;;;;;4.90;4.40;;;31.70;99.90;;;;;;5073294;28;20708;-64
2021/08/12 11:41:40;;;;;;;6.22;4.45;;;31.60;99.90;;;;;;5073627;28;20182;-62
2021/08/12 11:44:11;;;;;;;7.00;5.10;;;31.40;99.40;;;;;;5073496;28;20202;-63
2021/08/12 11:46:37;;;;;;;5.63;4.20;;;31.00;99.80;;;;;;5057453;28;20219;-61
2021/08/12 11:49:04;;;;;;;5.03;4.53;;;30.80;99.90;;;;;;5080331;28;20166;-61
2021/08/12 11:51:31;;;;;;;6.22;5.00;;;31.00;99.90;;;;;;5081527;28;20170;-64
2021/08/12 11:53:58;;;;;;;4.90;4.40;;;31.00;99.90;;;;;;5072781;28;20218;-63
2021/08/12 11:56:27;;;;;;;5.82;4.70;;;31.10;99.90;;;;;;5073095;28;20181;-61
2021/08/12 11:58:55;;;;;;;5.80;4.30;;;31.30;99.90;;;;;;5073642;28;20208;-64
2021/08/12 12:01:22;;;;;;;4.85;4.32;;;31.70;99.90;;;;;;5072976;28;20167;-64
2021/08/12 12:03:49;;;;;;;5.55;4.30;;;32.00;99.90;;;;;;5073056;28;20689;-60
2021/08/12 12:06:37;;;;;;;4.50;4.10;;;32.30;99.90;;;;;;5075069;28;20756;-62
2021/08/12 12:09:25;;;;;;;4.70;4.30;;;32.40;99.90;;;;;;5072900;28;20179;-62
2021/08/12 12:12:02;;;;;;;4.70;4.18;;;32.80;99.60;;;;;;5072832;28;20213;-64
2021/08/12 12:14:34;;;;;;;4.78;4.25;;;33.20;99.90;;;;;;5073226;28;20226;-62
2021/08/12 12:17:18;;;;;;;4.75;4.35;;;33.30;99.70;;;;;;5076653;28;20183;-64
2021/08/12 12:20:09;;;;;;;5.13;4.63;;;33.60;98.50;;;;;;5076871;28;20210;-64
2021/08/12 12:22:35;;;;;;;5.13;4.63;;;33.50;97.40;;;;;;5076467;28;20193;-63
2021/08/12 12:25:04;;;;;;;5.05;4.55;;;33.30;97.00;;;;;;5078300;28;20170;-62
2021/08/12 12:27:30;;;;;;;4.05;3.75;;;33.20;96.70;;;;;;5076555;28;20171;-62
2021/08/12 12:30:12;;;;;;;6.32;4.57;;;33.10;96.00;;;;;;5076531;28;20177;-62
2021/08/12 12:32:39;;;;;;;4.88;4.18;;;33.40;95.40;;;;;;5076428;28;20177;-62
2021/08/12 12:35:06;;;;;;;5.10;4.60;;;33.30;95.00;;;;;;5076666;28;20594;-62
2021/08/12 12:37:34;;;;;;;5.18;4.70;;;33.20;96.10;;;;;;5076603;28;20178;-64
2021/08/12 12:40:00;;;;;;;6.28;4.25;;;33.30;97.80;;;;;;5076215;28;20207;-62
2021/08/12 12:42:31;;;;;;;4.38;4.07;;;33.70;95.90;;;;;;5076479;28;20179;-64
2021/08/12 12:45:07;;;;;;;4.90;4.40;;;33.90;94.60;;;;;;5075999;28;20194;-63
2021/08/12 12:47:34;;;;;;;4.60;4.20;;;34.00;93.90;;;;;;5076720;28;20190;-61
2021/08/12 12:50:03;;;;;;;4.78;4.32;;;34.30;96.40;;;;;;5082004;28;20226;-64
2021/08/12 12:52:29;;;;;;;5.22;4.20;;;35.00;94.40;;;;;;5071211;28;20657;-64